WEATHER DATA

YESTERDAY
Time Temp. Dewp. Hum. Wind dir Wind speed Wind gust Bar. 1h Prec. 24h Prec.
00:18 15.7 12.8 83 248 1.1 3.9 1019.3 0.0000 0.0000
00:29 15.8 12.9 83 262 1.4 3.6 1019.2 0.0000 0.0000
00:39 15.8 12.9 83 255 1.9 5.3 1019.2 0.0000 0.0000
00:48 15.8 12.9 83 236 0.8 2.8 1019.1 0.0000 0.0000
00:58 15.8 13.1 84 257 1.7 3.3 1018.9 0.0000 0.0000
01:09 15.8 13.1 84 255 0.8 2.5 1018.9 0.0000 0.0000
01:19 15.8 13.1 84 252 1.7 4.2 1018.9 0.0000 0.0000
01:29 15.9 13.2 84 250 1.7 4.4 1019.2 0.0000 0.0000
01:39 15.9 13.2 84 250 1.9 5 1019.4 0.0000 0.0000
01:49 16 13.5 85 254 1.4 4.2 1019.6 0.0000 0.0000
01:59 16 13.5 85 254 0.8 2.8 1019.6 0.0000 0.0000
02:09 16 13.5 85 245 1.1 3.3 1019.7 0.0000 0.0000
02:19 16 13.5 85 236 0.8 3.3 1019.7 0.0000 0.0000
02:29 16 13.7 86 196 0.8 2.8 1019.8 0.0000 0.0000
02:39 16 13.7 86 212 1.1 5.3 1019.6 0.0000 0.0000
02:50 16 13.7 86 156 0.8 3.3 1019.6 0.0000 0.0000
02:59 16.1 13.8 86 258 1.1 3.1 1019.4 0.0000 0.0000
03:09 16.1 13.8 86 248 0.8 3.1 1019.5 0.0000 0.0000
03:19 16.1 13.8 86 255 1.7 3.6 1019.7 0.0000 0.0000
03:30 16 13.7 86 202 0.8 2.5 1019.7 0.0000 0.0000
03:40 16 13.8 87 188 0.8 2.5 1019.7 0.0000 0.0000
03:49 16 13.8 87 246 1.1 3.1 1019.8 0.0000 0.0000
04:00 16 13.8 87 235 1.1 3.9 1020 0.0000 0.0000
04:10 16 13.8 87 239 1.1 3.3 1019.9 0.0000 0.0000
04:20 16 13.8 87 234 1.1 3.1 1020.1 0.0000 0.0000
04:30 16 13.8 87 211 0.8 2.2 1020.3 0.0000 0.0000
04:40 16 13.8 87 270 0.8 2.5 1020.3 0.0000 0.0000
04:50 15.9 13.7 87 257 0.8 2.5 1020.4 0.0000 0.0000
05:00 15.9 13.9 88 270 0.8 2.5 1020.3 0.0000 0.0000
05:11 15.9 13.9 88 228 0.8 3.1 1020.5 0.0000 0.0000
05:20 15.9 13.9 88 236 0.8 3.3 1020.5 0.0000 0.0000
05:30 15.9 13.9 88 256 1.1 2.5 1020.6 0.0000 0.0000
05:40 15.8 13.8 88 270 0.6 1.4 1020.7 0.0000 0.0000
05:51 15.7 13.9 89 270 0.8 2.2 1020.6 0.0000 0.0000
06:01 15.6 13.8 89 241 0.6 1.7 1020.6 0.0000 0.0000
06:10 15.5 13.7 89 270 0.6 3.3 1020.4 0.0000 0.0000
06:21 15.4 13.8 90 209 0.6 1.9 1020.3 0.0000 0.0000
06:31 15.4 13.8 90 231 0.6 2.2 1020.6 0.0000 0.0000
06:41 15.4 13.8 90 237 0.6 1.9 1020.7 0.0000 0.0000
06:51 15.5 13.9 90 157 0.8 2.8 1020.6 0.0000 0.0000
07:01 15.6 14 90 270 0.6 2.5 1020.8 0.0000 0.0000
07:11 15.5 13.9 90 225 0.6 1.1 1021 0.0000 0.0000
07:21 15.5 13.9 90 225 0.8 3.1 1021.2 0.0000 0.0000
07:32 15.5 14 91 203 0.3 1.1 1021.4 0.0000 0.0000
07:41 15.5 14 91 270 0.3 0.8 1021.4 0.0000 0.0000
07:51 15.5 14 91 198 0.3 0.8 1021.4 0.0000 0.0000
08:01 15.6 14.3 92 270 0.3 1.1 1021.4 0.0000 0.0000
08:12 15.8 14.5 92 240 0.6 2.2 1021.6 0.0000 0.0000
08:21 16 14.7 92 243 0.6 2.5 1021.7 0.0000 0.0000
08:31 16.3 14.8 91 198 0.6 1.4 1022 0.0000 0.0000
08:42 16.3 14.8 91 180 0.6 2.8 1021.9 0.0000 0.0000
08:52 16.7 15.2 91 248 0.6 1.7 1021.9 0.0000 0.0000
09:02 16.9 15.4 91 270 0.6 2.5 1021.9 0.0000 0.0000
09:12 17.3 15.6 90 270 0.6 1.7 1022.1 0.0000 0.0000
09:22 17.8 16 89 270 1.1 3.1 1022.1 0.0000 0.0000
09:32 18.4 16.4 88 251 0.8 2.5 1022 0.0000 0.0000
09:42 18.8 16.6 87 270 1.4 3.9 1022.1 0.0000 0.0000
09:53 19.2 16.8 86 250 0.8 3.3 1022.3 0.0000 0.0000
10:02 19.6 17.2 86 270 1.4 3.6 1022.1 0.0000 0.0000
10:12 19.8 17 84 221 1.1 2.5 1022.2 0.0000 0.0000
10:22 20.2 17.2 83 270 1.1 3.1 1022.2 0.0000 0.0000
10:33 20.4 17.2 82 252 1.7 6.7 1021.9 0.0000 0.0000
10:42 20.5 17.5 83 250 1.4 4.2 1021.9 0.0000 0.0000
10:52 20.6 17.4 82 250 1.1 3.1 1021.9 0.0000 0.0000
11:03 20.6 17.4 82 270 0.8 2.8 1021.8 0.0000 0.0000
11:13 20.7 17.7 83 254 1.1 3.1 1022.2 0.0000 0.0000
11:23 20.8 17.6 82 249 1.1 2.8 1022.1 0.0000 0.0000
11:33 20.9 17.5 81 260 1.1 2.8 1021.9 0.0000 0.0000
11:43 21 17.6 81 227 1.1 3.3 1021.9 0.0000 0.0000
11:53 21.1 17.7 81 254 2.2 5.3 1021.9 0.0000 0.0000
12:03 21.2 17.6 80 245 1.4 4.4 1021.7 0.0000 0.0000
12:13 21.4 17.8 80 270 0.8 3.9 1021.7 0.0000 0.0000
12:23 21.5 17.7 79 229 1.4 3.3 1021.7 0.0000 0.0000
12:33 21.6 17.6 78 259 1.7 5 1021.7 0.0000 0.0000
12:43 21.7 17.9 79 250 1.4 3.1 1021.2 0.0000 0.0000
12:54 21.8 17.6 77 265 1.9 5.8 1021.2 0.0000 0.0000
13:03 21.8 17.8 78 225 0.8 2.2 1021.5 0.0000 0.0000
13:13 21.9 17.7 77 250 1.7 3.6 1021.7 0.0000 0.0000
13:24 21.9 17.5 76 235 1.9 6.1 1021.4 0.0000 0.0000
13:34 22 17.8 77 255 1.7 5.3 1021.1 0.0000 0.0000
13:43 22.1 17.9 77 213 1.4 3.6 1020.9 0.0000 0.0000
13:54 22.2 18.2 78 244 1.1 3.9 1020.8 0.0000 0.0000
14:04 22.4 18.2 77 207 1.1 3.1 1020.8 0.0000 0.0000
14:14 22.5 18.1 76 250 1.1 2.8 1020.8 0.0000 0.0000
14:24 22.5 18.1 76 248 1.1 3.3 1020.6 0.0000 0.0000
14:34 22.4 18 76 247 1.4 5.3 1020.5 0.0000 0.0000
14:44 22.3 18.1 77 242 1.4 3.9 1020.5 0.0000 0.0000
14:54 22.2 17.8 76 225 1.7 3.9 1020.6 0.0000 0.0000
15:04 22.2 18 77 239 1.1 4.7 1020.4 0.0000 0.0000
15:14 22.2 18 77 234 1.1 3.3 1020.4 0.0000 0.0000
15:24 22.3 17.9 76 257 1.7 4.2 1020.3 0.0000 0.0000
15:34 22.3 17.9 76 257 1.4 3.9 1020.2 0.0000 0.0000
15:45 22.3 17.9 76 238 1.1 3.6 1020.1 0.0000 0.0000
15:55 22.3 17.9 76 225 1.4 4.7 1020 0.0000 0.0000
16:04 22.2 18 77 227 1.1 3.1 1020 0.0000 0.0000
16:15 22.1 17.7 76 216 0.8 2.2 1019.8 0.0000 0.0000
16:25 21.9 17.7 77 245 1.7 4.2 1019.7 0.0000 0.0000
16:35 21.8 17.6 77 260 1.1 3.3 1019.6 0.0000 0.0000
16:44 21.7 17.7 78 248 1.1 5.6 1019.6 0.0000 0.0000
16:55 21.5 17.5 78 248 1.1 3.3 1019.6 0.0000 0.0000
17:05 21.4 17.4 78 247 1.1 2.8 1019.3 0.0000 0.0000
17:15 21.3 17.3 78 270 1.1 3.6 1019.2 0.0000 0.0000
17:25 21.2 17.4 79 270 0.8 2.2 1019 0.0000 0.0000
17:35 21 17 78 270 0.8 2.2 1018.9 0.0000 0.0000
17:45 20.9 16.9 78 249 0.8 1.9 1018.8 0.0000 0.0000
17:55 20.7 16.9 79 255 0.8 3.3 1018.6 0.0000 0.0000
18:06 20.5 16.7 79 270 0.6 2.2 1018.5 0.0000 0.0000
18:15 20.3 16.7 80 235 0.6 1.7 1018.5 0.0000 0.0000
18:25 20 16.4 80 241 0.8 3.9 1018.4 0.0000 0.0000
18:36 19.7 16.4 81 225 0.3 1.1 1018.4 0.0000 0.0000
18:46 19.5 16.2 81 239 0.6 1.9 1018.3 0.0000 0.0000
18:56 19.2 16.1 82 270 0.3 1.1 1018.3 0.0000 0.0000
19:05 19 15.9 82 256 0.8 2.8 1018.2 0.0000 0.0000
19:16 18.9 15.8 82 255 0.6 3.1 1018.2 0.0000 0.0000
19:26 18.7 15.9 84 225 0.3 1.4 1018.2 0.0000 0.0000
19:36 18.6 15.7 83 248 0.8 2.8 1018.2 0.0000 0.0000
19:46 18.5 15.7 84 234 0.6 1.4 1018.1 0.0000 0.0000
19:56 18.6 15.8 84 257 1.4 3.3 1017.9 0.0000 0.0000
20:06 18.6 15.8 84 264 1.4 5 1017.9 0.0000 0.0000
20:16 18.6 15.7 83 263 1.7 4.7 1017.8 0.0000 0.0000
20:27 18.7 15.8 83 259 1.7 4.7 1017.7 0.0000 0.0000
20:36 18.8 15.9 83 252 1.4 3.6 1017.7 0.0000 0.0000
20:46 18.9 16 83 253 1.4 4.2 1017.7 0.0000 0.0000
20:56 18.9 16 83 253 1.4 4.4 1017.7 0.0000 0.0000
21:07 18.9 15.8 82 258 1.1 3.1 1017.7 0.0000 0.0000
21:16 18.9 15.8 82 251 1.1 3.1 1017.5 0.0000 0.0000
21:26 18.9 15.8 82 270 0.8 3.6 1017.4 0.0000 0.0000
21:37 18.8 15.7 82 270 1.4 5 1017.4 0.0000 0.0000
21:47 18.8 15.9 83 259 1.1 4.2 1017.4 0.0000 0.0000
21:57 18.9 15.8 82 270 1.4 3.3 1017.3 0.0000 0.0000
22:07 18.8 15.9 83 257 1.4 4.7 1017.4 0.0000 0.0000
22:17 18.8 15.9 83 259 1.4 5.8 1017.3 0.0000 0.0000
22:27 18.7 15.6 82 258 1.7 4.4 1017.6 0.0000 0.0000
22:37 18.7 15.6 82 255 1.7 5 1017.6 0.0000 0.0000
22:48 18.8 15.5 81 259 2.2 6.4 1017.5 0.0000 0.0000
22:57 18.8 15.5 81 255 2.2 4.2 1017.6 0.0000 0.0000
23:16 18.9 15.4 80 246 2.2 5.8 1017.7 0.0000 0.0000
23:26 18.9 15.4 80 246 1.9 5.6 1017.8 0.0000 0.0000
23:35 18.9 15.2 79 251 2.2 4.4 1017.6 0.0000 0.0000
23:46 19 15.3 79 254 1.7 4.4 1017.7 0.0000 0.0000
23:56 18.9 15.2 79 263 2.2 5.8 1017.6 0.0000 0.0000

DAY STATISTIC

2022-10-02
TEMPERATURE
AVERAGE
18.7
HIGH
22.5
14:14
LOW
15.4
06:21
PRESSURE
AVERAGE
1019.9
HIGH
1022.3
09:53
LOW
1017.3
21:57
DEWPOINT
AVERAGE
15.7
HIGH
18.2
13:54
LOW
12.8
00:18
HUMIDITY
AVERAGE
83
HIGH
92
08:01
LOW
76
13:24
WIND SPEED
AVERAGE
1.1
HIGH
2.2
11:53
WIND GUST
AVERAGE
3.3
HIGH
6.7
10:33
WIND DIRECTION
PREVAILING
W
60.3%
N
0.0
NE
0.0
E
0.0
SE
1.4
S
5.0
SW
33.3
W
60.3
NW
0.0
PRECIPITATION
RAIN HOUR
0.0
RAIN DAY
0.0
TEMPERATURE (°C)
LOW
15.4
HIGH
22.5
AVERAGE
18.7
PRESSURE (hpa)
LOW
1017.3
HIGH
1022.3
AVERAGE
1019.9
DEVICE